Time;durP1;ratioP1;P1;durP2;ratioP2;P2;SDS_P1;SDS_P2;PMS_P1;PMS_P2;Temp;Humidity;BMP_temperature;BMP_pressure;BME280_temperature;BME280_humidity;BME280_pressure;Samples;Min_cycle;Max_cycle;Signal;HPM_P1;HPM_P2
2022/07/06 00:01:00;;;;;;;3.92;1.13;;;14.70;99.90;;;;;;5076170;28;20043;-69
2022/07/06 00:03:26;;;;;;;3.97;1.55;;;14.60;99.90;;;;;;5091563;28;20037;-69
2022/07/06 00:05:51;;;;;;;4.15;1.27;;;14.70;99.90;;;;;;5095031;28;20118;-69
2022/07/06 00:08:17;;;;;;;3.38;1.60;;;14.70;99.90;;;;;;5083826;28;20035;-68
2022/07/06 00:10:43;;;;;;;4.20;1.63;;;14.70;99.90;;;;;;5094057;28;20055;-69
2022/07/06 00:13:09;;;;;;;5.13;1.65;;;14.60;99.90;;;;;;5093090;28;20054;-69
2022/07/06 00:15:34;;;;;;;5.40;1.60;;;14.60;99.90;;;;;;5093164;28;20126;-69
2022/07/06 00:18:00;;;;;;;3.60;1.63;;;14.60;99.90;;;;;;5092173;28;20074;-69
2022/07/06 00:20:26;;;;;;;3.88;1.67;;;14.60;99.90;;;;;;5092459;28;20040;-69
2022/07/06 00:22:51;;;;;;;2.67;1.42;;;14.60;99.90;;;;;;5093390;28;20039;-69
2022/07/06 00:25:17;;;;;;;4.85;1.70;;;14.50;99.90;;;;;;5069933;28;20048;-69
2022/07/06 00:27:42;;;;;;;3.40;1.50;;;14.50;99.90;;;;;;5073819;28;20493;-69
2022/07/06 00:30:08;;;;;;;5.50;1.90;;;14.50;99.90;;;;;;5071672;28;20039;-69
2022/07/06 00:32:34;;;;;;;4.03;1.50;;;14.50;99.90;;;;;;5064518;28;20072;-69
2022/07/06 00:34:59;;;;;;;6.40;1.58;;;14.50;99.90;;;;;;5062444;28;20036;-69
2022/07/06 00:37:25;;;;;;;4.38;1.73;;;14.50;99.90;;;;;;5063462;28;20056;-69
2022/07/06 00:39:50;;;;;;;3.85;1.80;;;14.50;99.90;;;;;;5069870;28;20129;-69
2022/07/06 00:42:16;;;;;;;2.72;1.52;;;14.50;99.90;;;;;;5052463;28;20040;-69
2022/07/06 00:44:41;;;;;;;3.55;1.58;;;14.50;99.90;;;;;;5050936;28;20028;-68
2022/07/06 00:47:07;;;;;;;4.00;1.60;;;14.40;99.90;;;;;;5070605;28;20042;-69
2022/07/06 00:52:18;;;;;;;3.35;1.45;;;14.50;99.90;;;;;;5066566;28;20453;-69
2022/07/06 00:54:45;;;;;;;3.80;1.70;;;14.40;99.90;;;;;;5065719;28;20186;-69
2022/07/06 00:57:10;;;;;;;3.55;1.48;;;14.40;99.90;;;;;;5052695;28;20150;-69
2022/07/06 00:59:36;;;;;;;3.25;1.35;;;14.30;99.90;;;;;;5064424;28;20029;-69
2022/07/06 01:02:02;;;;;;;5.40;1.63;;;14.30;99.90;;;;;;5064702;28;20090;-69
2022/07/06 01:04:28;;;;;;;5.68;1.88;;;14.30;99.90;;;;;;5059656;28;20550;-69
2022/07/06 01:06:54;;;;;;;3.08;1.42;;;14.30;99.90;;;;;;5052158;28;20131;-68
2022/07/06 01:09:20;;;;;;;3.72;1.30;;;14.30;99.90;;;;;;5061498;28;20470;-69
2022/07/06 01:11:46;;;;;;;4.40;1.35;;;14.30;99.90;;;;;;5071981;28;20040;-69
2022/07/06 01:14:13;;;;;;;4.53;1.40;;;14.30;99.90;;;;;;5090047;28;20101;-69
2022/07/06 01:16:39;;;;;;;1.75;1.25;;;14.30;99.90;;;;;;5090068;28;20130;-69
2022/07/06 01:19:04;;;;;;;5.70;1.80;;;14.30;99.90;;;;;;5064610;28;20128;-69
2022/07/06 01:21:30;;;;;;;4.18;1.60;;;14.20;99.90;;;;;;5069688;28;20047;-69
2022/07/06 01:23:56;;;;;;;5.05;1.65;;;14.20;99.90;;;;;;5084075;28;20056;-69
2022/07/06 01:26:21;;;;;;;3.58;1.30;;;14.30;99.90;;;;;;5072794;28;20037;-69
2022/07/06 01:28:50;;;;;;;5.35;1.48;;;14.30;99.90;;;;;;5066590;28;20072;-69
2022/07/06 01:31:17;;;;;;;5.65;1.67;;;14.20;99.90;;;;;;5085915;28;20048;-69
2022/07/06 01:33:43;;;;;;;4.00;1.75;;;14.30;99.90;;;;;;5052598;28;20055;-69
2022/07/06 01:36:09;;;;;;;3.33;1.63;;;14.30;99.90;;;;;;5077260;28;20037;-69
2022/07/06 01:38:50;;;;;;;3.67;1.30;;;14.20;99.90;;;;;;5065671;28;20398;-69
2022/07/06 01:41:16;;;;;;;4.95;1.65;;;14.20;99.90;;;;;;5069262;28;20064;-69
2022/07/06 01:43:42;;;;;;;3.75;1.20;;;14.20;99.90;;;;;;5064300;28;20152;-68
2022/07/06 01:46:08;;;;;;;2.35;1.27;;;14.20;99.90;;;;;;5059004;28;20032;-69
2022/07/06 01:48:33;;;;;;;2.28;1.00;;;14.20;99.90;;;;;;5072737;28;20032;-69
2022/07/06 01:50:59;;;;;;;3.50;1.30;;;14.20;99.90;;;;;;5072266;28;20032;-68
2022/07/06 01:53:24;;;;;;;3.22;1.30;;;14.20;99.90;;;;;;5064907;28;20049;-69
2022/07/06 01:55:50;;;;;;;4.05;1.45;;;14.10;99.90;;;;;;5068419;28;20197;-69
2022/07/06 01:58:15;;;;;;;3.88;1.35;;;14.10;99.90;;;;;;5067701;28;20036;-69
2022/07/06 02:00:41;;;;;;;3.72;1.20;;;14.20;99.90;;;;;;5068093;28;20041;-69
2022/07/06 02:03:07;;;;;;;4.63;1.30;;;14.10;99.90;;;;;;5064229;28;20042;-69
2022/07/06 02:05:32;;;;;;;4.45;1.23;;;14.10;99.90;;;;;;5067248;28;20114;-69
2022/07/06 02:07:58;;;;;;;4.05;1.23;;;14.10;99.90;;;;;;5063584;28;20033;-69
2022/07/06 02:10:23;;;;;;;5.28;1.30;;;14.10;99.90;;;;;;5065766;28;20105;-69
2022/07/06 02:12:49;;;;;;;5.70;1.42;;;14.10;99.90;;;;;;5066786;28;20109;-69
2022/07/06 02:15:15;;;;;;;4.10;1.35;;;14.10;99.90;;;;;;5067564;28;20068;-69
2022/07/06 02:17:40;;;;;;;2.65;1.10;;;14.10;99.90;;;;;;5066120;28;20064;-69
2022/07/06 02:20:06;;;;;;;5.15;1.45;;;14.10;99.90;;;;;;5066621;28;20091;-69
2022/07/06 02:22:32;;;;;;;2.78;1.20;;;14.10;99.90;;;;;;5066947;28;20036;-69
2022/07/06 02:24:58;;;;;;;4.40;1.20;;;14.00;99.90;;;;;;5074517;28;20055;-69
2022/07/06 02:27:23;;;;;;;3.00;1.25;;;14.00;99.90;;;;;;5084700;28;20032;-69
2022/07/06 02:29:49;;;;;;;4.75;1.42;;;14.10;99.90;;;;;;5086798;28;20085;-69
2022/07/06 02:32:14;;;;;;;4.43;1.50;;;14.10;99.90;;;;;;5086690;28;20044;-69
2022/07/06 02:34:40;;;;;;;7.78;1.42;;;14.10;99.90;;;;;;5089170;28;20035;-69
2022/07/06 02:37:05;;;;;;;3.15;1.33;;;14.10;99.90;;;;;;5083031;28;20107;-69
2022/07/06 02:39:31;;;;;;;4.00;1.50;;;14.10;99.90;;;;;;5068078;28;20048;-69
2022/07/06 02:41:56;;;;;;;5.25;1.40;;;14.10;99.90;;;;;;5086195;28;20036;-69
2022/07/06 02:44:22;;;;;;;1.85;1.10;;;14.10;99.90;;;;;;5085283;28;20071;-69
2022/07/06 02:46:48;;;;;;;4.22;1.30;;;14.10;99.90;;;;;;5084789;28;20044;-69
2022/07/06 02:49:13;;;;;;;4.47;1.27;;;14.10;99.90;;;;;;5085757;28;20089;-69
2022/07/06 02:51:39;;;;;;;5.18;1.42;;;14.10;99.90;;;;;;5085648;28;20047;-69
2022/07/06 02:54:04;;;;;;;4.05;1.33;;;14.10;99.90;;;;;;5069576;28;20058;-69
2022/07/06 02:56:30;;;;;;;3.33;1.27;;;14.00;99.90;;;;;;5086658;28;20090;-69
2022/07/06 02:58:55;;;;;;;5.40;1.70;;;14.10;99.90;;;;;;5086660;28;20036;-69
2022/07/06 03:01:21;;;;;;;6.10;1.80;;;14.00;99.90;;;;;;5083367;28;20078;-69
2022/07/06 03:03:47;;;;;;;5.03;1.30;;;14.00;99.90;;;;;;5075829;28;20120;-69
2022/07/06 03:06:12;;;;;;;3.10;1.35;;;14.10;99.90;;;;;;5082302;28;20063;-69
2022/07/06 03:08:38;;;;;;;2.63;1.40;;;14.10;99.90;;;;;;5084399;28;20032;-69
2022/07/06 03:11:03;;;;;;;3.25;1.42;;;14.10;99.90;;;;;;5084515;28;20525;-69
2022/07/06 03:13:29;;;;;;;4.25;1.63;;;14.10;99.90;;;;;;5070235;28;20040;-69
2022/07/06 03:15:55;;;;;;;2.38;1.55;;;14.00;99.90;;;;;;5087905;28;20044;-69
2022/07/06 03:18:20;;;;;;;5.32;1.73;;;14.00;99.90;;;;;;5086496;28;20040;-69
2022/07/06 03:20:46;;;;;;;6.03;1.33;;;14.00;99.90;;;;;;5089390;28;20496;-69
2022/07/06 03:23:12;;;;;;;4.10;1.45;;;14.00;99.90;;;;;;5086706;28;20114;-69
2022/07/06 03:25:37;;;;;;;3.15;1.45;;;14.00;99.90;;;;;;5078696;28;20056;-69
2022/07/06 03:28:03;;;;;;;3.97;1.30;;;14.00;99.90;;;;;;5071883;28;20044;-69
2022/07/06 03:30:28;;;;;;;3.65;1.30;;;13.90;99.90;;;;;;5089669;28;20577;-69
2022/07/06 03:32:54;;;;;;;3.67;1.35;;;13.90;99.90;;;;;;5076202;28;20044;-69
2022/07/06 03:35:20;;;;;;;5.68;1.50;;;13.90;99.90;;;;;;5071504;28;20649;-69
2022/07/06 03:37:45;;;;;;;4.50;1.70;;;13.90;99.90;;;;;;5086597;28;20089;-69
2022/07/06 03:40:11;;;;;;;2.80;1.45;;;13.90;99.90;;;;;;5087155;28;20040;-69
2022/07/06 03:42:37;;;;;;;3.60;1.48;;;13.80;99.90;;;;;;5088446;28;20036;-69
2022/07/06 03:45:04;;;;;;;4.43;1.90;;;13.70;99.90;;;;;;5089329;28;20048;-69
2022/07/06 03:47:29;;;;;;;3.55;1.30;;;13.70;99.90;;;;;;5089724;28;20465;-69
2022/07/06 03:49:56;;;;;;;3.17;1.35;;;13.70;99.90;;;;;;5089393;28;20131;-69
2022/07/06 03:52:21;;;;;;;8.27;1.85;;;13.60;99.90;;;;;;5084305;28;20044;-69
2022/07/06 03:54:47;;;;;;;5.32;1.60;;;13.60;99.90;;;;;;5086457;28;20040;-69
2022/07/06 03:57:13;;;;;;;5.10;1.40;;;13.50;99.90;;;;;;5090161;28;20040;-69
2022/07/06 03:59:42;;;;;;;2.90;1.40;;;13.40;99.90;;;;;;5093001;28;20044;-69
2022/07/06 04:02:07;;;;;;;3.22;1.30;;;13.40;99.90;;;;;;5092957;28;20548;-69
2022/07/06 04:04:36;;;;;;;5.65;2.00;;;13.30;99.90;;;;;;5081528;28;20136;-69
2022/07/06 04:07:02;;;;;;;2.75;1.42;;;13.30;99.90;;;;;;5072760;28;20048;-69
2022/07/06 04:09:27;;;;;;;2.92;1.17;;;13.30;99.90;;;;;;5085456;28;20123;-69
2022/07/06 04:11:53;;;;;;;4.00;1.60;;;13.20;99.90;;;;;;5092578;28;20055;-69
2022/07/06 04:14:18;;;;;;;4.95;1.70;;;13.20;99.90;;;;;;5091151;28;20044;-69
2022/07/06 04:16:44;;;;;;;2.97;1.10;;;13.20;99.90;;;;;;5091518;28;20067;-69
2022/07/06 04:19:09;;;;;;;10.35;1.70;;;13.20;99.90;;;;;;5090045;28;20048;-69
2022/07/06 04:21:35;;;;;;;3.80;1.20;;;13.20;99.90;;;;;;5088628;28;20504;-69
2022/07/06 04:24:01;;;;;;;4.03;1.13;;;13.20;99.90;;;;;;5084511;28;20083;-69
2022/07/06 04:26:26;;;;;;;3.35;1.40;;;13.20;99.90;;;;;;5059641;28;20048;-69
2022/07/06 04:28:52;;;;;;;3.30;1.23;;;13.30;99.90;;;;;;5073964;28;20032;-69
2022/07/06 04:31:17;;;;;;;4.07;1.48;;;13.20;99.90;;;;;;5068795;28;20428;-69
2022/07/06 04:33:43;;;;;;;3.88;1.38;;;13.30;99.90;;;;;;5067035;28;20500;-69
2022/07/06 04:36:10;;;;;;;3.05;1.33;;;13.30;99.90;;;;;;5064665;28;20032;-69
2022/07/06 04:38:36;;;;;;;4.57;1.20;;;13.30;99.90;;;;;;5059642;28;20056;-73
2022/07/06 04:41:01;;;;;;;4.20;1.30;;;13.30;99.90;;;;;;5069397;28;20070;-69
2022/07/06 04:43:27;;;;;;;5.45;1.23;;;13.40;99.90;;;;;;5066978;28;20037;-69
2022/07/06 04:45:52;;;;;;;4.90;1.48;;;13.50;99.90;;;;;;5054139;28;20442;-69
2022/07/06 04:48:18;;;;;;;3.80;1.00;;;13.60;99.90;;;;;;5063660;28;20037;-69
2022/07/06 04:50:43;;;;;;;3.97;0.95;;;13.70;99.90;;;;;;5069402;28;20036;-69
2022/07/06 04:53:09;;;;;;;3.20;0.85;;;13.90;99.90;;;;;;5067056;28;20089;-69
2022/07/06 04:55:35;;;;;;;4.80;1.08;;;14.10;99.90;;;;;;5062492;28;20099;-69
2022/07/06 04:58:00;;;;;;;5.18;1.08;;;14.20;99.90;;;;;;5069406;28;20395;-69
2022/07/06 05:00:26;;;;;;;3.15;1.10;;;14.30;99.90;;;;;;5069761;28;20037;-69
2022/07/06 05:02:52;;;;;;;3.25;0.80;;;14.40;99.90;;;;;;5068035;28;20036;-69
2022/07/06 05:05:17;;;;;;;3.83;0.85;;;14.50;99.90;;;;;;5057226;28;20037;-69
2022/07/06 05:07:43;;;;;;;2.70;0.68;;;14.50;99.90;;;;;;5068681;28;20102;-69
2022/07/06 05:10:10;;;;;;;3.95;1.00;;;14.60;99.90;;;;;;5052401;28;20044;-69
2022/07/06 05:12:36;;;;;;;4.75;0.85;;;14.60;99.90;;;;;;5076595;28;20501;-69
2022/07/06 05:15:02;;;;;;;4.00;1.02;;;14.70;99.90;;;;;;5070980;28;20122;-69
2022/07/06 05:17:28;;;;;;;3.38;0.88;;;14.60;99.90;;;;;;5083207;28;20116;-69
2022/07/06 05:19:53;;;;;;;3.90;0.70;;;14.70;99.90;;;;;;5052933;28;20133;-69
2022/07/06 05:22:19;;;;;;;3.47;0.90;;;14.70;99.90;;;;;;5069347;28;20039;-69
2022/07/06 05:24:45;;;;;;;2.60;0.88;;;14.70;99.90;;;;;;5063437;28;20061;-69
2022/07/06 05:27:10;;;;;;;4.90;0.93;;;14.80;99.90;;;;;;5071144;28;20037;-69
2022/07/06 05:29:36;;;;;;;7.15;1.13;;;14.90;99.90;;;;;;5056979;28;20118;-69
2022/07/06 05:32:02;;;;;;;5.32;1.13;;;15.00;99.90;;;;;;5064419;28;20033;-69
2022/07/06 05:34:27;;;;;;;2.72;0.95;;;15.00;99.90;;;;;;5063202;28;20080;-69
2022/07/06 05:36:53;;;;;;;6.10;1.00;;;15.20;99.90;;;;;;5061645;28;20037;-69
2022/07/06 05:39:21;;;;;;;4.25;0.88;;;15.20;99.90;;;;;;5053802;28;20647;-69
2022/07/06 05:41:46;;;;;;;2.65;0.82;;;15.30;99.90;;;;;;5050580;28;20128;-69
2022/07/06 05:44:12;;;;;;;4.43;0.80;;;15.40;99.90;;;;;;5070436;28;20469;-69
2022/07/06 05:46:37;;;;;;;5.28;1.70;;;15.40;99.90;;;;;;5072033;28;20047;-69
2022/07/06 05:51:47;;;;;;;4.30;1.02;;;15.50;99.90;;;;;;5064590;28;20048;-69
2022/07/06 05:54:12;;;;;;;3.35;0.90;;;15.60;99.90;;;;;;5050338;28;20131;-69
2022/07/06 05:56:38;;;;;;;4.55;1.13;;;15.40;99.90;;;;;;5064880;28;20045;-70
2022/07/06 05:59:04;;;;;;;4.35;1.05;;;15.40;99.90;;;;;;5064235;28;20044;-69
2022/07/06 06:01:29;;;;;;;5.45;1.05;;;15.30;99.90;;;;;;5065648;28;20044;-70
2022/07/06 06:03:55;;;;;;;3.15;0.88;;;15.20;99.90;;;;;;5051563;28;20379;-70
2022/07/06 06:06:20;;;;;;;6.30;1.10;;;15.20;99.90;;;;;;5068195;28;20489;-70
2022/07/06 06:08:46;;;;;;;4.07;1.15;;;15.20;99.90;;;;;;5049799;28;20029;-70
2022/07/06 06:11:11;;;;;;;4.57;0.85;;;15.20;99.90;;;;;;5067430;28;20122;-69
2022/07/06 06:13:37;;;;;;;3.00;0.73;;;15.20;99.90;;;;;;5068533;28;20048;-70
2022/07/06 06:16:03;;;;;;;3.17;0.68;;;15.30;99.90;;;;;;5068498;28;20048;-69
2022/07/06 06:18:28;;;;;;;5.47;0.85;;;15.30;99.90;;;;;;5061164;28;20052;-69
2022/07/06 06:20:54;;;;;;;1.77;0.65;;;15.50;99.90;;;;;;5068141;28;20047;-69
2022/07/06 06:23:19;;;;;;;2.88;0.65;;;15.60;99.90;;;;;;5066988;28;20036;-69
2022/07/06 06:25:45;;;;;;;2.40;0.55;;;15.90;99.90;;;;;;5092284;28;20051;-69
2022/07/06 06:28:11;;;;;;;2.60;0.57;;;16.10;99.90;;;;;;5088612;28;20044;-69
2022/07/06 06:30:38;;;;;;;2.55;0.47;;;16.20;99.90;;;;;;5088025;28;20150;-70
2022/07/06 06:33:20;;;;;;;1.80;0.43;;;16.30;99.90;;;;;;5090668;28;20077;-69
2022/07/06 06:35:50;;;;;;;3.05;1.00;;;16.30;99.90;;;;;;5073656;28;20039;-69
2022/07/06 06:38:17;;;;;;;2.60;0.65;;;16.30;99.90;;;;;;5099967;22;20035;-72
2022/07/06 06:40:43;;;;;;;4.43;0.70;;;16.30;99.90;;;;;;5119565;27;20047;-73
2022/07/06 06:43:09;;;;;;;1.38;0.40;;;16.40;99.90;;;;;;5106257;27;20088;-73
2022/07/06 06:45:35;;;;;;;1.27;0.57;;;16.40;99.90;;;;;;5106916;28;20035;-74
2022/07/06 06:48:04;;;;;;;3.92;0.50;;;16.50;99.90;;;;;;5104552;27;20031;-73
2022/07/06 06:50:30;;;;;;;4.10;0.77;;;16.50;99.90;;;;;;5100175;27;20031;-74
2022/07/06 06:52:55;;;;;;;4.40;0.57;;;16.50;99.90;;;;;;5092564;28;20434;-74
2022/07/06 06:55:21;;;;;;;3.15;1.10;;;16.50;99.90;;;;;;5094737;28;20412;-74
2022/07/06 06:57:46;;;;;;;3.83;0.90;;;16.50;99.90;;;;;;5107391;28;20127;-74
2022/07/06 07:00:13;;;;;;;3.47;0.73;;;16.50;99.90;;;;;;5112743;28;20539;-74
2022/07/06 07:02:38;;;;;;;3.97;0.93;;;16.40;99.90;;;;;;5102898;27;25292;-78
2022/07/06 07:05:04;;;;;;;13.18;11.77;;;16.40;99.90;;;;;;5106937;28;20121;-68
2022/07/06 07:07:30;;;;;;;6.88;2.20;;;16.50;99.90;;;;;;5104825;28;20039;-68
2022/07/06 07:09:56;;;;;;;17.60;13.35;;;16.50;99.90;;;;;;5091975;28;20044;-74
2022/07/06 07:12:21;;;;;;;5.20;0.80;;;16.50;99.90;;;;;;5104164;28;20384;-73
2022/07/06 07:14:47;;;;;;;1.90;0.82;;;16.60;99.90;;;;;;5102609;28;20092;-74
2022/07/06 07:17:13;;;;;;;2.78;0.80;;;16.80;99.90;;;;;;5103212;28;20035;-74
2022/07/06 07:19:38;;;;;;;4.68;0.68;;;16.90;99.90;;;;;;5111797;28;20112;-71
2022/07/06 07:22:04;;;;;;;3.08;0.95;;;17.10;99.90;;;;;;5110614;28;20046;-72
2022/07/06 07:24:30;;;;;;;3.03;0.88;;;18.20;99.90;;;;;;5114184;28;20070;-73
2022/07/06 07:26:56;;;;;;;5.03;0.80;;;19.30;99.90;;;;;;5112505;28;20535;-72
2022/07/06 07:29:21;;;;;;;4.35;0.77;;;20.10;99.90;;;;;;5111117;28;20038;-72
2022/07/06 07:31:47;;;;;;;5.22;0.63;;;21.20;99.90;;;;;;5115147;27;20031;-73
2022/07/06 07:34:13;;;;;;;3.67;0.82;;;22.40;96.50;;;;;;5105207;27;20524;-73
2022/07/06 07:36:38;;;;;;;3.15;0.80;;;22.40;93.50;;;;;;5114127;27;20049;-73
2022/07/06 07:39:04;;;;;;;6.82;0.90;;;23.50;92.60;;;;;;5093157;28;20050;-73
2022/07/06 07:41:30;;;;;;;2.72;1.25;;;23.80;92.10;;;;;;5113710;28;20039;-74
2022/07/06 07:43:56;;;;;;;3.85;0.60;;;23.30;92.60;;;;;;5101881;28;20517;-74
2022/07/06 07:46:21;;;;;;;6.18;0.70;;;23.00;93.20;;;;;;5095210;28;20670;-75
2022/07/06 07:48:47;;;;;;;2.70;0.70;;;22.50;92.00;;;;;;5111579;28;20051;-73
2022/07/06 07:51:12;;;;;;;2.35;0.40;;;23.20;92.30;;;;;;5111001;28;20123;-73
2022/07/06 07:53:38;;;;;;;4.30;0.80;;;24.10;90.50;;;;;;5113452;28;20040;-72
2022/07/06 07:56:04;;;;;;;51.00;4.88;;;24.60;88.70;;;;;;5113322;28;20044;-72
2022/07/06 07:58:30;;;;;;;4.57;0.80;;;25.20;86.50;;;;;;5109789;28;20075;-71
2022/07/06 08:00:55;;;;;;;3.22;0.60;;;25.70;82.90;;;;;;5113070;28;20043;-71
2022/07/06 08:03:21;;;;;;;2.88;0.55;;;25.90;82.80;;;;;;5105538;28;20074;-71
2022/07/06 08:05:48;;;;;;;2.38;0.70;;;25.90;76.70;;;;;;5102922;28;20445;-71
2022/07/06 08:08:14;;;;;;;3.28;0.60;;;25.80;80.50;;;;;;5108798;28;20043;-71
2022/07/06 08:10:39;;;;;;;2.65;0.80;;;25.50;79.00;;;;;;5113149;28;20047;-71
2022/07/06 08:13:06;;;;;;;3.03;0.60;;;24.40;78.10;;;;;;5096033;28;20051;-71
2022/07/06 08:15:33;;;;;;;1.90;0.70;;;24.40;81.80;;;;;;5112732;28;20050;-71
2022/07/06 08:17:58;;;;;;;1.75;0.50;;;24.10;82.30;;;;;;5113159;28;20044;-70
2022/07/06 08:20:24;;;;;;;2.17;0.60;;;23.80;84.00;;;;;;5098110;28;20512;-71
2022/07/06 08:22:50;;;;;;;3.20;0.88;;;23.30;85.50;;;;;;5097530;28;20040;-70
2022/07/06 08:25:16;;;;;;;2.78;0.60;;;22.50;85.50;;;;;;5095484;28;20032;-71
2022/07/06 08:27:42;;;;;;;3.92;0.73;;;21.90;88.30;;;;;;5082777;28;20073;-72
2022/07/06 08:30:09;;;;;;;2.50;0.70;;;21.50;88.70;;;;;;5095299;28;20067;-72
2022/07/06 08:32:40;;;;;;;1.30;0.50;;;21.10;90.30;;;;;;5102196;28;20460;-71
2022/07/06 08:35:06;;;;;;;1.90;0.50;;;20.90;90.60;;;;;;5108145;28;20524;-71
2022/07/06 08:37:31;;;;;;;2.58;0.68;;;20.70;91.40;;;;;;5113009;28;20042;-71
2022/07/06 08:39:57;;;;;;;3.35;0.80;;;20.60;91.30;;;;;;5108555;28;20048;-72
2022/07/06 08:42:28;;;;;;;2.60;0.57;;;20.30;91.50;;;;;;5112361;28;20449;-72
2022/07/06 08:44:54;;;;;;;2.63;0.65;;;20.30;91.80;;;;;;5104524;28;20101;-72
2022/07/06 08:47:21;;;;;;;2.47;0.70;;;20.50;92.00;;;;;;5102750;28;20053;-71
2022/07/06 08:49:47;;;;;;;1.70;0.50;;;20.60;91.80;;;;;;5112490;28;20137;-71
2022/07/06 08:52:13;;;;;;;4.20;0.50;;;20.60;91.30;;;;;;5095041;28;20468;-72
2022/07/06 08:54:39;;;;;;;3.30;0.43;;;20.80;91.20;;;;;;5112391;28;20047;-72
2022/07/06 08:57:05;;;;;;;3.63;0.65;;;20.50;90.50;;;;;;5107241;28;20039;-72
2022/07/06 08:59:31;;;;;;;1.30;0.38;;;20.90;90.70;;;;;;5107488;28;20042;-72
2022/07/06 09:02:00;;;;;;;2.50;0.75;;;20.80;90.40;;;;;;5093470;28;20120;-72
2022/07/06 09:04:26;;;;;;;2.83;0.80;;;21.00;91.00;;;;;;5091587;28;20042;-72
2022/07/06 09:06:54;;;;;;;3.95;0.70;;;21.00;90.40;;;;;;5111294;28;20100;-72
2022/07/06 09:09:22;;;;;;;2.15;0.65;;;21.00;90.40;;;;;;5091398;28;20044;-72
2022/07/06 09:11:48;;;;;;;2.03;0.38;;;20.80;90.10;;;;;;5106332;28;20114;-72
2022/07/06 09:14:13;;;;;;;3.20;0.38;;;20.50;90.20;;;;;;5110374;28;20122;-71
2022/07/06 09:16:39;;;;;;;1.95;0.40;;;20.50;90.80;;;;;;5109975;28;20376;-71
2022/07/06 09:19:10;;;;;;;2.17;0.50;;;20.50;91.20;;;;;;5104646;28;20067;-72
2022/07/06 09:21:36;;;;;;;3.65;0.85;;;20.30;90.50;;;;;;5104125;28;20055;-71
2022/07/06 09:24:07;;;;;;;2.90;0.60;;;20.30;91.00;;;;;;5107712;28;20036;-72
2022/07/06 09:26:33;;;;;;;4.10;0.60;;;20.30;91.00;;;;;;5109256;28;20612;-72
2022/07/06 09:28:59;;;;;;;3.42;0.73;;;20.30;91.20;;;;;;5112961;28;20044;-72
2022/07/06 09:31:25;;;;;;;2.88;0.55;;;20.40;91.00;;;;;;5094542;28;20044;-72
2022/07/06 09:34:02;;;;;;;1.55;0.50;;;20.30;90.80;;;;;;5109431;28;20047;-72
2022/07/06 09:36:48;;;;;;;2.70;0.57;;;20.30;90.70;;;;;;5110666;28;20152;-71
2022/07/06 09:39:27;;;;;;;2.38;0.40;;;20.30;91.50;;;;;;5111191;28;20087;-71
2022/07/06 09:41:58;;;;;;;5.70;0.80;;;20.10;90.80;;;;;;5111483;28;20050;-72
2022/07/06 09:44:39;;;;;;;3.00;0.60;;;20.10;91.30;;;;;;5099896;28;20136;-71
2022/07/06 09:47:07;;;;;;;4.07;0.90;;;20.10;91.50;;;;;;5098592;28;20035;-71
2022/07/06 09:49:34;;;;;;;1.77;0.35;;;20.10;91.10;;;;;;5099311;28;20126;-71
2022/07/06 09:52:02;;;;;;;2.28;0.60;;;20.00;91.50;;;;;;5100035;28;20073;-71
2022/07/06 09:54:28;;;;;;;2.88;0.77;;;20.10;91.90;;;;;;5079275;28;20457;-72
2022/07/06 09:56:55;;;;;;;1.85;0.70;;;20.10;91.80;;;;;;5092864;27;20035;-71
2022/07/06 09:59:28;;;;;;;4.28;0.75;;;20.30;91.80;;;;;;5077712;28;20040;-72
2022/07/06 10:01:56;;;;;;;1.80;0.50;;;20.70;91.60;;;;;;5097371;28;20113;-72
2022/07/06 10:04:23;;;;;;;2.50;0.45;;;21.00;90.70;;;;;;5106851;28;20060;-72
2022/07/06 10:06:50;;;;;;;1.15;0.40;;;20.90;88.40;;;;;;5108100;28;20031;-71
2022/07/06 10:09:17;;;;;;;2.38;0.60;;;21.00;90.40;;;;;;5102033;28;20038;-72
2022/07/06 10:11:51;;;;;;;1.92;0.65;;;20.80;87.90;;;;;;5105363;28;20886;-72
2022/07/06 10:14:22;;;;;;;2.40;0.60;;;20.80;90.30;;;;;;5097776;28;20038;-71
2022/07/06 10:16:48;;;;;;;2.53;0.55;;;21.00;90.50;;;;;;5090119;28;20040;-72
2022/07/06 10:19:16;;;;;;;2.60;0.68;;;21.20;90.70;;;;;;5102375;28;20035;-72
2022/07/06 10:21:43;;;;;;;2.05;0.50;;;21.10;90.00;;;;;;5099953;28;20646;-72
2022/07/06 10:24:11;;;;;;;2.58;0.73;;;21.30;90.40;;;;;;5110724;28;20044;-72
2022/07/06 10:26:36;;;;;;;1.17;0.50;;;21.30;90.10;;;;;;5110516;28;20065;-72
2022/07/06 10:29:04;;;;;;;2.90;0.75;;;21.40;89.80;;;;;;5110910;28;20035;-73
2022/07/06 10:31:30;;;;;;;2.35;0.65;;;21.30;87.40;;;;;;5107445;28;20049;-72
2022/07/06 10:33:58;;;;;;;3.88;0.70;;;21.30;89.00;;;;;;5103316;28;20071;-72
2022/07/06 10:36:24;;;;;;;2.28;0.40;;;21.50;88.80;;;;;;5091182;28;20485;-72
2022/07/06 10:38:51;;;;;;;3.15;0.60;;;21.60;89.40;;;;;;5095339;28;20442;-72
2022/07/06 10:41:17;;;;;;;0.88;0.40;;;21.80;89.50;;;;;;5102345;28;20056;-72
2022/07/06 10:43:44;;;;;;;1.42;0.38;;;22.00;88.60;;;;;;5105711;28;20040;-72
2022/07/06 10:46:16;;;;;;;1.90;0.65;;;22.00;86.10;;;;;;5089528;28;20055;-72
2022/07/06 10:48:43;;;;;;;1.42;0.40;;;22.10;88.20;;;;;;5094145;28;20040;-72
2022/07/06 10:51:12;;;;;;;1.02;0.40;;;22.30;87.30;;;;;;5090160;28;20040;-72
2022/07/06 10:53:39;;;;;;;5.88;0.70;;;22.50;86.50;;;;;;5089959;28;20047;-72
2022/07/06 10:56:07;;;;;;;3.38;0.65;;;22.60;85.90;;;;;;5097192;28;20051;-72
2022/07/06 10:58:40;;;;;;;1.88;0.43;;;22.70;86.20;;;;;;5098997;28;20055;-72
2022/07/06 11:01:06;;;;;;;2.85;0.47;;;22.60;83.70;;;;;;5089726;28;20051;-72
2022/07/06 11:03:58;;;;;;;2.47;0.65;;;22.60;85.40;;;;;;5091135;28;20366;-72
2022/07/06 11:06:24;;;;;;;;;;;22.50;85.30;;;;;;5093158;28;20124;-72
2022/07/06 11:08:50;;;;;;;4.10;1.05;;;22.60;86.50;;;;;;5114062;28;19945;-72
2022/07/06 11:11:18;;;;;;;2.65;0.50;;;22.60;86.70;;;;;;5116934;28;20051;-72
2022/07/06 11:13:49;;;;;;;2.58;0.70;;;22.50;84.80;;;;;;5097785;28;20124;-72
2022/07/06 11:16:16;;;;;;;2.00;0.57;;;22.40;85.50;;;;;;5106094;27;20050;-72
2022/07/06 11:18:48;;;;;;;2.78;0.70;;;22.20;86.50;;;;;;5097030;28;20044;-72
2022/07/06 11:21:16;;;;;;;3.28;0.82;;;22.30;86.30;;;;;;5114215;28;20035;-72
2022/07/06 11:23:42;;;;;;;1.48;0.40;;;22.30;85.30;;;;;;5098944;28;20386;-72
2022/07/06 11:26:10;;;;;;;2.55;0.60;;;22.10;85.80;;;;;;5111668;28;20042;-72
2022/07/06 11:28:37;;;;;;;1.92;0.65;;;22.00;86.20;;;;;;5103223;28;20073;-72
2022/07/06 11:31:02;;;;;;;5.85;1.00;;;22.10;87.00;;;;;;5102564;28;20047;-72
2022/07/06 11:33:29;;;;;;;1.27;0.60;;;22.20;85.70;;;;;;5104133;28;20140;-72
2022/07/06 11:36:18;;;;;;;2.45;0.65;;;22.10;85.40;;;;;;5113816;27;20043;-73
2022/07/06 11:38:45;;;;;;;2.65;0.60;;;22.30;83.40;;;;;;5102156;28;20047;-73
2022/07/06 11:41:13;;;;;;;1.13;0.40;;;22.40;86.20;;;;;;5114050;28;20127;-73
2022/07/06 11:43:42;;;;;;;1.85;0.52;;;22.30;85.70;;;;;;5116658;28;20085;-73
2022/07/06 11:46:18;;;;;;;4.55;0.70;;;22.30;84.70;;;;;;5114300;28;20461;-73
2022/07/06 11:48:49;;;;;;;1.40;0.50;;;22.20;84.40;;;;;;5101347;28;20042;-72
2022/07/06 11:51:16;;;;;;;2.87;0.90;;;22.00;84.90;;;;;;5110966;28;20047;-73
2022/07/06 11:53:46;;;;;;;2.38;0.50;;;21.90;87.30;;;;;;5110682;27;20303;-73
2022/07/06 11:56:13;;;;;;;2.38;0.52;;;21.90;87.00;;;;;;5113037;28;20157;-73
2022/07/06 11:58:42;;;;;;;4.30;0.70;;;22.00;87.10;;;;;;5112855;28;20089;-73
2022/07/06 12:01:10;;;;;;;2.50;1.20;;;22.10;85.90;;;;;;5112685;28;20118;-73
2022/07/06 12:03:36;;;;;;;2.63;0.57;;;22.20;85.20;;;;;;5116857;27;20100;-73
2022/07/06 12:06:06;;;;;;;2.67;0.50;;;22.40;86.00;;;;;;5112048;27;20032;-73
2022/07/06 12:08:40;;;;;;;1.38;0.50;;;22.50;85.70;;;;;;5099163;28;20074;-73
2022/07/06 12:11:05;;;;;;;2.60;0.63;;;22.60;85.10;;;;;;5104799;28;20113;-72
2022/07/06 12:13:38;;;;;;;1.38;0.50;;;22.50;85.00;;;;;;5116436;28;20044;-72
2022/07/06 12:16:15;;;;;;;2.75;0.60;;;22.40;83.50;;;;;;5116273;28;20168;-73
2022/07/06 12:18:42;;;;;;;2.15;0.63;;;22.40;82.40;;;;;;5111590;28;20043;-73
2022/07/06 12:21:16;;;;;;;2.63;0.50;;;22.50;83.70;;;;;;5112032;28;20493;-73
2022/07/06 12:23:55;;;;;;;2.22;0.70;;;22.60;84.30;;;;;;5104893;28;20040;-73
2022/07/06 12:26:25;;;;;;;2.45;0.63;;;22.50;83.90;;;;;;5109196;28;20046;-73
2022/07/06 12:29:09;;;;;;;2.55;0.90;;;22.50;84.40;;;;;;5111620;28;20494;-73
2022/07/06 12:31:36;;;;;;;1.88;0.57;;;22.50;82.80;;;;;;5110968;28;20064;-73
2022/07/06 12:34:04;;;;;;;2.45;0.73;;;22.60;84.20;;;;;;5114310;27;20403;-73
2022/07/06 12:36:30;;;;;;;2.08;0.70;;;22.70;84.20;;;;;;5101464;28;20051;-73
2022/07/06 12:38:56;;;;;;;3.97;0.63;;;22.80;82.20;;;;;;5108520;28;20504;-73
2022/07/06 12:41:33;;;;;;;4.57;0.75;;;22.80;84.20;;;;;;5113824;28;20044;-73
2022/07/06 12:44:09;;;;;;;3.22;0.60;;;22.80;82.00;;;;;;5110507;28;20101;-73
2022/07/06 12:46:37;;;;;;;1.85;0.60;;;22.70;80.00;;;;;;5113674;28;20036;-73
2022/07/06 12:49:13;;;;;;;13.82;1.73;;;22.50;81.70;;;;;;5099926;28;20077;-74
2022/07/06 12:51:57;;;;;;;1.58;0.60;;;22.40;80.90;;;;;;5101408;28;20405;-73